Time;durP1;ratioP1;P1;durP2;ratioP2;P2;SDS_P1;SDS_P2;PMS_P1;PMS_P2;Temp;Humidity;BMP_temperature;BMP_pressure;BME280_temperature;BME280_humidity;BME280_pressure;Samples;Min_cycle;Max_cycle;Signal;HPM_P1;HPM_P2
2021/05/04 00:01:56;;;;;;;4.00;2.63;;;;;;;;;;5081584;28;20444;-56
2021/05/04 00:04:22;;;;;;;6.37;2.43;;;;;;;;;;5083746;28;20448;-56
2021/05/04 00:06:51;;;;;;;4.93;2.23;;;;;;;;;;5098152;28;20456;-56
2021/05/04 00:09:18;;;;;;;3.40;1.83;;;;;;;;;;5097758;28;20432;-52
2021/05/04 00:11:49;;;;;;;4.40;2.13;;;;;;;;;;5097823;28;20452;-56
2021/05/04 00:14:16;;;;;;;3.70;2.50;;;;;;;;;;5097819;28;20448;-57
2021/05/04 00:16:43;;;;;;;6.10;2.97;;;;;;;;;;5098403;28;20466;-54
2021/05/04 00:19:11;;;;;;;5.50;2.63;;;;;;;;;;5094979;28;20479;-57
2021/05/04 00:21:37;;;;;;;3.57;1.67;;;;;;;;;;5097791;28;20467;-52
2021/05/04 00:24:05;;;;;;;5.70;2.50;;;;;;;;;;5097467;28;20440;-59
2021/05/04 00:26:34;;;;;;;3.40;2.13;;;;;;;;;;5087438;28;20452;-49
2021/05/04 00:29:01;;;;;;;4.90;2.40;;;;;;;;;;5098356;28;20607;-56
2021/05/04 00:31:30;;;;;;;3.60;1.77;;;;;;;;;;5098236;28;20456;-56
2021/05/04 00:33:59;;;;;;;5.00;2.93;;;;;;;;;;5082266;28;20460;-57
2021/05/04 00:36:29;;;;;;;4.40;2.50;;;;;;;;;;5098226;28;20486;-60
2021/05/04 00:39:07;;;;;;;4.30;2.23;;;;;;;;;;5097621;28;20554;-58
2021/05/04 00:41:34;;;;;;;3.03;1.80;;;;;;;;;;5098133;28;20467;-57
2021/05/04 00:44:01;;;;;;;8.30;2.30;;;;;;;;;;5097635;28;20456;-57
2021/05/04 00:46:41;;;;;;;5.00;2.27;;;;;;;;;;5098232;28;20444;-55
2021/05/04 00:49:08;;;;;;;3.97;2.13;;;;;;;;;;5097614;28;20442;-58
2021/05/04 00:51:35;;;;;;;6.90;1.67;;;;;;;;;;5098342;28;20570;-58
2021/05/04 00:54:22;;;;;;;4.53;2.13;;;;;;;;;;5097834;28;20459;-53
2021/05/04 00:56:54;;;;;;;6.93;2.00;;;;;;;;;;5095936;28;20474;-60
2021/05/04 00:59:24;;;;;;;4.67;2.73;;;;;;;;;;5083307;28;20488;-58
2021/05/04 01:02:15;;;;;;;3.20;1.70;;;;;;;;;;5097609;28;20490;-58
2021/05/04 01:04:52;;;;;;;9.43;2.60;;;;;;;;;;5097930;28;20451;-56
2021/05/04 01:07:46;;;;;;;5.17;1.97;;;;;;;;;;5096968;28;20494;-58
2021/05/04 01:10:29;;;;;;;3.63;2.20;;;;;;;;;;5097368;28;20440;-52
2021/05/04 01:13:06;;;;;;;6.00;2.63;;;;;;;;;;5096015;28;20524;-57
2021/05/04 01:15:33;;;;;;;5.20;1.73;;;;;;;;;;5097696;28;20455;-59
2021/05/04 01:18:05;;;;;;;4.37;1.83;;;;;;;;;;5097796;28;20460;-60
2021/05/04 01:20:41;;;;;;;9.70;2.87;;;;;;;;;;5097755;28;20436;-57
2021/05/04 01:23:14;;;;;;;8.23;2.07;;;;;;;;;;5098027;28;20432;-56
2021/05/04 01:25:58;;;;;;;5.33;2.13;;;;;;;;;;5097483;28;20452;-60
2021/05/04 01:28:26;;;;;;;5.07;2.00;;;;;;;;;;5096549;28;20436;-60
2021/05/04 01:30:58;;;;;;;5.77;2.03;;;;;;;;;;5097929;28;20455;-52
2021/05/04 01:34:02;;;;;;;7.80;1.90;;;;;;;;;;5098101;28;20460;-53
2021/05/04 01:36:34;;;;;;;5.60;1.80;;;;;;;;;;5098389;28;20460;-56
2021/05/04 01:39:06;;;;;;;4.73;2.50;;;;;;;;;;5097286;28;20487;-59
2021/05/04 01:41:33;;;;;;;6.03;2.97;;;;;;;;;;5097465;28;20456;-58
2021/05/04 01:43:59;;;;;;;4.97;2.40;;;;;;;;;;5095670;28;20436;-60
2021/05/04 01:46:32;;;;;;;5.37;1.93;;;;;;;;;;5097096;28;20440;-59
2021/05/04 01:49:00;;;;;;;3.00;1.60;;;;;;;;;;5097205;28;20444;-55
2021/05/04 01:51:28;;;;;;;3.10;1.80;;;;;;;;;;5096613;28;20467;-57
2021/05/04 01:54:06;;;;;;;3.87;1.90;;;;;;;;;;5096607;28;20460;-56
2021/05/04 01:56:36;;;;;;;4.57;2.30;;;;;;;;;;5094579;28;20720;-58
2021/05/04 01:59:05;;;;;;;4.17;2.20;;;;;;;;;;5096707;28;20492;-58
2021/05/04 02:01:37;;;;;;;4.03;2.00;;;;;;;;;;5097022;28;20452;-58
2021/05/04 02:04:04;;;;;;;3.30;1.53;;;;;;;;;;5096658;28;20452;-53
2021/05/04 02:06:41;;;;;;;2.50;1.60;;;;;;;;;;5097149;28;20421;-57
2021/05/04 02:09:09;;;;;;;4.30;2.23;;;;;;;;;;5096438;28;20455;-61
2021/05/04 02:11:35;;;;;;;4.03;1.60;;;;;;;;;;5096226;28;20444;-50
2021/05/04 02:14:02;;;;;;;5.07;1.97;;;;;;;;;;5096150;28;20519;-56
2021/05/04 02:16:29;;;;;;;3.43;2.00;;;;;;;;;;5096483;28;20459;-57
2021/05/04 02:18:56;;;;;;;8.13;2.00;;;;;;;;;;5096121;28;20472;-57
2021/05/04 02:21:24;;;;;;;3.77;1.90;;;;;;;;;;5095745;28;20416;-58
2021/05/04 02:23:51;;;;;;;4.93;1.60;;;;;;;;;;5096484;28;20460;-58
2021/05/04 02:26:19;;;;;;;3.80;1.90;;;;;;;;;;5096035;28;20745;-52
2021/05/04 02:28:46;;;;;;;5.43;1.53;;;;;;;;;;5095615;28;20450;-52
2021/05/04 02:31:16;;;;;;;6.60;1.70;;;;;;;;;;5095885;28;20448;-58
2021/05/04 02:33:44;;;;;;;6.07;1.50;;;;;;;;;;5096852;28;20416;-57
2021/05/04 02:36:12;;;;;;;7.70;2.20;;;;;;;;;;5096585;28;20478;-55
2021/05/04 02:38:39;;;;;;;9.20;2.63;;;;;;;;;;5095944;28;20473;-52
2021/05/04 02:41:24;;;;;;;7.67;2.00;;;;;;;;;;5096118;28;20571;-56
2021/05/04 02:43:51;;;;;;;10.63;1.90;;;;;;;;;;5094117;28;20563;-55
2021/05/04 02:46:18;;;;;;;7.53;1.63;;;;;;;;;;5096416;28;20467;-56
2021/05/04 02:48:51;;;;;;;20.93;1.67;;;;;;;;;;5096476;28;20455;-48
2021/05/04 02:51:18;;;;;;;4.33;1.30;;;;;;;;;;5096118;28;20460;-50
2021/05/04 02:53:46;;;;;;;3.67;1.50;;;;;;;;;;5095860;28;20437;-52
2021/05/04 02:56:38;;;;;;;6.83;1.47;;;;;;;;;;5095693;28;20459;-52
2021/05/04 02:59:17;;;;;;;8.00;2.17;;;;;;;;;;5096209;28;20484;-58
2021/05/04 03:02:00;;;;;;;4.30;1.50;;;;;;;;;;5095106;28;20464;-55
2021/05/04 03:04:28;;;;;;;4.93;2.13;;;;;;;;;;5095562;28;20529;-57
2021/05/04 03:06:55;;;;;;;11.53;2.03;;;;;;;;;;5095239;28;20515;-49
2021/05/04 03:09:29;;;;;;;4.50;1.50;;;;;;;;;;5095594;28;20464;-52
2021/05/04 03:11:57;;;;;;;3.67;1.90;;;;;;;;;;5095007;28;20456;-55
2021/05/04 03:14:25;;;;;;;2.10;1.00;;;;;;;;;;5095798;28;20499;-54
2021/05/04 03:16:59;;;;;;;3.70;1.50;;;;;;;;;;5095500;28;20459;-56
2021/05/04 03:19:32;;;;;;;5.63;1.40;;;;;;;;;;5096221;28;20487;-58
2021/05/04 03:22:00;;;;;;;4.67;1.83;;;;;;;;;;5096977;28;20471;-57
2021/05/04 03:24:33;;;;;;;4.90;2.03;;;;;;;;;;5096378;28;20482;-57
2021/05/04 03:26:59;;;;;;;4.40;1.63;;;;;;;;;;5095468;28;20464;-56
2021/05/04 03:29:27;;;;;;;3.33;1.40;;;;;;;;;;5095619;28;20448;-57
2021/05/04 03:31:56;;;;;;;3.20;1.50;;;;;;;;;;5094969;28;20444;-54
2021/05/04 03:34:23;;;;;;;6.17;1.77;;;;;;;;;;5099338;28;20459;-49
2021/05/04 03:36:51;;;;;;;7.23;1.40;;;;;;;;;;5098556;28;20456;-56
2021/05/04 03:39:24;;;;;;;5.77;2.10;;;;;;;;;;5099137;28;20486;-58
2021/05/04 03:41:50;;;;;;;4.10;1.80;;;;;;;;;;5098680;28;20456;-59
2021/05/04 03:44:22;;;;;;;3.63;1.50;;;;;;;;;;5098783;28;20517;-54
2021/05/04 03:46:50;;;;;;;5.07;1.80;;;;;;;;;;5099303;28;20473;-54
2021/05/04 03:49:17;;;;;;;7.00;2.20;;;;;;;;;;5098193;28;20490;-57
2021/05/04 03:51:44;;;;;;;3.60;1.40;;;;;;;;;;5098616;28;20440;-55
2021/05/04 03:54:11;;;;;;;2.80;1.30;;;;;;;;;;5098024;28;20646;-57
2021/05/04 03:56:38;;;;;;;6.70;1.60;;;;;;;;;;5098387;28;20436;-57
2021/05/04 03:59:05;;;;;;;3.53;1.57;;;;;;;;;;5098276;28;20468;-59
2021/05/04 04:01:32;;;;;;;4.63;1.73;;;;;;;;;;5098462;28;20909;-52
2021/05/04 04:04:00;;;;;;;3.70;1.40;;;;;;;;;;5098309;28;20508;-60
2021/05/04 04:06:36;;;;;;;2.70;1.17;;;;;;;;;;5098855;28;20456;-53
2021/05/04 04:09:03;;;;;;;3.40;1.90;;;;;;;;;;5098508;28;20485;-53
2021/05/04 04:11:30;;;;;;;15.60;1.90;;;;;;;;;;5098183;28;20447;-54
2021/05/04 04:14:16;;;;;;;2.70;1.37;;;;;;;;;;5098035;28;20499;-60
2021/05/04 04:16:43;;;;;;;3.10;1.53;;;;;;;;;;5097826;28;20459;-56
2021/05/04 04:19:11;;;;;;;6.23;1.37;;;;;;;;;;5097743;28;20487;-54
2021/05/04 04:21:48;;;;;;;4.93;1.77;;;;;;;;;;5097970;28;20455;-53
2021/05/04 04:24:15;;;;;;;8.40;1.70;;;;;;;;;;5097201;28;20504;-56
2021/05/04 04:26:42;;;;;;;8.83;1.73;;;;;;;;;;5098082;28;20439;-56
2021/05/04 04:29:10;;;;;;;3.03;1.70;;;;;;;;;;5097073;28;20470;-54
2021/05/04 04:31:37;;;;;;;4.37;1.43;;;;;;;;;;5097723;28;20464;-55
2021/05/04 04:34:04;;;;;;;3.67;1.60;;;;;;;;;;5097465;28;20467;-49
2021/05/04 04:36:41;;;;;;;2.63;1.20;;;;;;;;;;5097542;28;20459;-54
2021/05/04 04:39:08;;;;;;;3.50;1.37;;;;;;;;;;5096980;28;20490;-54
2021/05/04 04:41:35;;;;;;;2.93;1.60;;;;;;;;;;5097627;28;20443;-56
2021/05/04 04:44:02;;;;;;;4.23;1.50;;;;;;;;;;5094806;28;20500;-53
2021/05/04 04:46:39;;;;;;;5.00;1.43;;;;;;;;;;5096680;28;20471;-52
2021/05/04 04:49:21;;;;;;;2.80;1.57;;;;;;;;;;5096888;28;20471;-52
2021/05/04 04:51:49;;;;;;;3.42;1.40;;;;;;;;;;5097975;28;20436;-54
2021/05/04 04:54:16;;;;;;;2.93;1.30;;;;;;;;;;5097155;28;20214;-57
2021/05/04 04:57:07;;;;;;;4.05;1.50;;;;;;;;;;5097692;28;20424;-55
2021/05/04 04:59:34;;;;;;;4.10;1.37;;;;;;;;;;5096680;28;20218;-50
2021/05/04 05:02:00;;;;;;;2.60;1.17;;;;;;;;;;5097473;28;20461;-50
2021/05/04 05:04:38;;;;;;;6.53;1.63;;;;;;;;;;5097563;28;20202;-58
2021/05/04 05:07:08;;;;;;;3.90;1.60;;;;;;;;;;5097621;28;20185;-56
2021/05/04 05:09:36;;;;;;;5.43;1.70;;;;;;;;;;5097544;28;20509;-57
2021/05/04 05:12:04;;;;;;;3.57;1.80;;;;;;;;;;5096897;28;20488;-57
2021/05/04 05:14:33;;;;;;;6.20;1.70;;;;;;;;;;5096752;28;20456;-59
2021/05/04 05:17:09;;;;;;;5.43;1.37;;;;;;;;;;5096204;28;20458;-56
2021/05/04 05:19:36;;;;;;;2.83;1.20;;;;;;;;;;5095862;28;20475;-54
2021/05/04 05:22:04;;;;;;;2.80;1.30;;;;;;;;;;5095049;28;20546;-52
2021/05/04 05:24:31;;;;;;;8.73;1.40;;;;;;;;;;5095779;28;20288;-61
2021/05/04 05:26:58;;;;;;;3.45;1.70;;;;;;;;;;5096036;28;20237;-49
2021/05/04 05:29:25;;;;;;;4.43;1.73;;;;;;;;;;5096196;28;20187;-54
2021/05/04 05:31:52;;;;;;;2.83;0.95;;;;;;;;;;5095922;28;20448;-54
2021/05/04 05:34:55;;;;;;;5.13;2.10;;;;;;;;;;5095074;28;20206;-56
2021/05/04 05:37:26;;;;;;;4.13;1.47;;;;;;;;;;5078503;28;20472;-51
2021/05/04 05:39:54;;;;;;;4.73;1.33;;;;;;;;;;5075214;28;20508;-58
2021/05/04 05:42:21;;;;;;;3.58;1.33;;;;;;;;;;5075722;28;20475;-57
2021/05/04 05:44:48;;;;;;;2.35;1.25;;;;;;;;;;5094967;28;20206;-58
2021/05/04 05:47:15;;;;;;;3.67;1.53;;;;;;;;;;5094901;28;20328;-57
2021/05/04 05:49:43;;;;;;;2.70;1.50;;;;;;;;;;5080686;28;20521;-57
2021/05/04 05:52:11;;;;;;;8.23;1.87;;;;;;;;;;5074926;28;20437;-55
2021/05/04 05:54:39;;;;;;;4.67;1.27;;;;;;;;;;5081385;28;20506;-55
2021/05/04 05:57:07;;;;;;;2.80;1.30;;;;;;;;;;5093627;28;20571;-54
2021/05/04 05:59:35;;;;;;;7.43;1.20;;;;;;;;;;5093481;28;20223;-57
2021/05/04 06:02:20;;;;;;;3.60;1.50;;;;;;;;;;5075256;28;20460;-54
2021/05/04 06:04:47;;;;;;;2.10;1.13;;;;;;;;;;5078610;28;20464;-56
2021/05/04 06:07:14;;;;;;;3.50;1.37;;;;;;;;;;5093415;28;20510;-53
2021/05/04 06:09:42;;;;;;;4.93;2.00;;;;;;;;;;5094461;28;20455;-59
2021/05/04 06:12:11;;;;;;;3.80;1.30;;;;;;;;;;5094776;28;20471;-56
2021/05/04 06:14:48;;;;;;;3.40;1.60;;;;;;;;;;5093580;28;20460;-57
2021/05/04 06:17:16;;;;;;;4.17;1.67;;;;;;;;;;5094459;28;20456;-57
2021/05/04 06:19:43;;;;;;;3.30;2.00;;;;;;;;;;5095080;28;20956;-59
2021/05/04 06:22:12;;;;;;;3.37;1.10;;;;;;;;;;5094314;28;20533;-55
2021/05/04 06:24:39;;;;;;;4.57;1.17;;;;;;;;;;5093893;28;20474;-50
2021/05/04 06:27:09;;;;;;;7.90;1.20;;;;;;;;;;5095286;28;20471;-56
2021/05/04 06:29:57;;;;;;;3.30;1.23;;;;;;;;;;5094842;28;20598;-60
2021/05/04 06:32:27;;;;;;;2.77;1.20;;;;;;;;;;5094616;28;20448;-55
2021/05/04 06:34:54;;;;;;;3.00;2.07;;;;;;;;;;5094481;28;20453;-53
2021/05/04 06:37:37;;;;;;;3.70;1.20;;;;;;;;;;5093602;28;20464;-59
2021/05/04 06:40:09;;;;;;;2.87;1.20;;;;;;;;;;5086610;28;20501;-56
2021/05/04 06:42:38;;;;;;;2.60;1.20;;;;;;;;;;5077328;28;20491;-57
2021/05/04 06:45:08;;;;;;;2.57;1.37;;;;;;;;;;5074970;28;20444;-55
2021/05/04 06:47:35;;;;;;;3.70;1.37;;;;;;;;;;5074732;28;20480;-50
2021/05/04 06:50:13;;;;;;;5.00;1.37;;;;;;;;;;5084957;28;20514;-58
2021/05/04 06:52:44;;;;;;;2.80;1.43;;;;;;;;;;5095213;28;20454;-58
2021/05/04 06:55:23;;;;;;;2.83;1.10;;;;;;;;;;5095356;28;20456;-55
2021/05/04 07:00:57;;;;;;;2.23;1.10;;;;;;;;;;5093655;28;20439;-55
2021/05/04 07:03:23;;;;;;;2.80;0.97;;;;;;;;;;5093596;28;20448;-58
2021/05/04 07:05:50;;;;;;;4.23;1.23;;;;;;;;;;5093570;28;20502;-58
2021/05/04 07:08:17;;;;;;;4.30;1.23;;;;;;;;;;5093278;28;20499;-59
2021/05/04 07:10:54;;;;;;;2.50;1.00;;;;;;;;;;5093008;28;20519;-55
2021/05/04 07:13:21;;;;;;;4.03;1.20;;;;;;;;;;5093401;28;20452;-59
2021/05/04 07:15:48;;;;;;;2.90;1.37;;;;;;;;;;5092219;28;20448;-52
2021/05/04 07:18:23;;;;;;;4.00;1.10;;;;;;;;;;5093318;28;20464;-53
2021/05/04 07:20:51;;;;;;;2.20;1.00;;;;;;;;;;5092895;28;20553;-59
2021/05/04 07:23:17;;;;;;;3.03;1.40;;;;;;;;;;5091998;28;20482;-51
2021/05/04 07:25:51;;;;;;;6.90;0.93;;;;;;;;;;5092524;28;20667;-56
2021/05/04 07:28:18;;;;;;;2.67;0.97;;;;;;;;;;5093157;28;20452;-50
2021/05/04 07:30:45;;;;;;;5.13;1.37;;;;;;;;;;5092750;28;20452;-61
2021/05/04 07:33:13;;;;;;;3.47;1.40;;;;;;;;;;5092194;28;20467;-53
2021/05/04 07:35:41;;;;;;;2.13;1.03;;;;;;;;;;5090278;28;20782;-55
2021/05/04 07:38:08;;;;;;;2.93;0.90;;;;;;;;;;5092529;28;20478;-59
2021/05/04 07:41:02;;;;;;;6.03;0.93;;;;;;;;;;5092903;28;20495;-59
2021/05/04 07:43:28;;;;;;;3.53;1.17;;;;;;;;;;5091207;28;20600;-55
2021/05/04 07:45:55;;;;;;;3.63;1.10;;;;;;;;;;5093015;28;20460;-56
2021/05/04 07:48:23;;;;;;;2.40;1.10;;;;;;;;;;5093623;28;20483;-57
2021/05/04 07:50:51;;;;;;;2.07;0.90;;;;;;;;;;5093242;28;20444;-54
2021/05/04 07:53:18;;;;;;;2.13;0.80;;;;;;;;;;5093839;28;20460;-58
2021/05/04 07:55:54;;;;;;;3.00;1.13;;;;;;;;;;5093625;28;20511;-58
2021/05/04 07:58:21;;;;;;;4.97;2.00;;;;;;;;;;5091906;28;20478;-52
2021/05/04 08:00:48;;;;;;;4.90;1.40;;;;;;;;;;5091997;28;20487;-56
2021/05/04 08:03:18;;;;;;;3.43;1.40;;;;;;;;;;5092740;28;20429;-54
2021/05/04 08:05:45;;;;;;;3.20;1.17;;;;;;;;;;5092887;28;20456;-54
2021/05/04 08:08:13;;;;;;;2.33;1.10;;;;;;;;;;5092615;28;20573;-58
2021/05/04 08:10:41;;;;;;;4.30;1.30;;;;;;;;;;5092002;28;20467;-57
2021/05/04 08:13:08;;;;;;;2.77;0.97;;;;;;;;;;5085916;28;20440;-57
2021/05/04 08:15:36;;;;;;;2.53;1.00;;;;;;;;;;5086373;28;20452;-57
2021/05/04 08:18:16;;;;;;;5.27;1.10;;;;;;;;;;5093070;28;20526;-58
2021/05/04 08:20:48;;;;;;;3.40;1.70;;;;;;;;;;5096347;28;20530;-60
2021/05/04 08:23:17;;;;;;;3.13;1.23;;;;;;;;;;5096014;28;20680;-56
2021/05/04 08:25:44;;;;;;;3.40;1.53;;;;;;;;;;5095841;28;20471;-58
2021/05/04 08:28:11;;;;;;;4.70;1.60;;;;;;;;;;5095458;28;20460;-59
2021/05/04 08:30:54;;;;;;;3.17;1.50;;;;;;;;;;5096129;28;20464;-48
2021/05/04 08:33:21;;;;;;;4.47;2.70;;;;;;;;;;5096000;28;20480;-60
2021/05/04 08:35:48;;;;;;;7.37;1.40;;;;;;;;;;5096108;28;20616;-59
2021/05/04 08:38:15;;;;;;;7.63;1.50;;;;;;;;;;5095658;28;20456;-54
2021/05/04 08:40:44;;;;;;;3.10;1.13;;;;;;;;;;5096685;28;20502;-55
2021/05/04 08:43:11;;;;;;;3.67;1.60;;;;;;;;;;5097533;28;20471;-60
2021/05/04 08:45:39;;;;;;;2.57;1.27;;;;;;;;;;5097468;28;20451;-57
2021/05/04 08:48:06;;;;;;;3.30;1.13;;;;;;;;;;5096348;28;20516;-53
2021/05/04 08:50:39;;;;;;;3.93;1.30;;;;;;;;;;5096197;28;20444;-54
2021/05/04 08:53:07;;;;;;;3.40;1.23;;;;;;;;;;5078542;28;20435;-53
2021/05/04 08:55:36;;;;;;;3.70;1.80;;;;;;;;;;5095908;28;20468;-58
2021/05/04 08:58:04;;;;;;;3.27;1.40;;;;;;;;;;5096525;28;20456;-55
2021/05/04 09:00:30;;;;;;;4.33;1.17;;;;;;;;;;5095461;28;20522;-53
2021/05/04 09:03:01;;;;;;;3.03;1.30;;;;;;;;;;5095552;28;20417;-57
2021/05/04 09:05:37;;;;;;;4.87;1.97;;;;;;;;;;5095723;28;20551;-55
2021/05/04 09:08:08;;;;;;;8.80;1.80;;;;;;;;;;5095660;28;20460;-54
2021/05/04 09:10:42;;;;;;;4.10;1.60;;;;;;;;;;5094886;28;20490;-59
2021/05/04 09:13:28;;;;;;;3.50;1.80;;;;;;;;;;5095058;28;20497;-59
2021/05/04 09:16:22;;;;;;;6.33;2.20;;;;;;;;;;5093422;28;20499;-53
2021/05/04 09:19:07;;;;;;;8.43;1.57;;;;;;;;;;5095030;28;20490;-56
2021/05/04 09:21:35;;;;;;;3.90;1.27;;;;;;;;;;5094967;28;20466;-57
2021/05/04 09:24:28;;;;;;;6.47;1.60;;;;;;;;;;5094475;28;20447;-59
2021/05/04 09:27:03;;;;;;;6.00;2.00;;;;;;;;;;5083029;28;20462;-62
2021/05/04 09:29:31;;;;;;;8.03;1.70;;;;;;;;;;5095143;28;20493;-51
2021/05/04 09:32:12;;;;;;;2.43;1.10;;;;;;;;;;5094880;28;20646;-58
2021/05/04 09:34:43;;;;;;;4.70;2.00;;;;;;;;;;5095073;28;20546;-54
2021/05/04 09:37:27;;;;;;;3.00;1.30;;;;;;;;;;5094929;28;20464;-50
2021/05/04 09:39:54;;;;;;;3.50;1.23;;;;;;;;;;5095099;28;20551;-61
2021/05/04 09:42:22;;;;;;;5.37;1.20;;;;;;;;;;5095323;28;20466;-59
2021/05/04 09:45:05;;;;;;;3.20;1.30;;;;;;;;;;5093695;28;20544;-62
2021/05/04 09:47:33;;;;;;;8.13;3.70;;;;;;;;;;5092279;28;20510;-55
2021/05/04 09:50:01;;;;;;;3.07;1.53;;;;;;;;;;5094248;28;20502;-58
2021/05/04 09:52:42;;;;;;;6.73;1.47;;;;;;;;;;5094637;28;20464;-59
2021/05/04 09:55:10;;;;;;;2.10;1.00;;;;;;;;;;5094686;28;20447;-56
2021/05/04 09:57:38;;;;;;;4.10;2.13;;;;;;;;;;5094211;28;20444;-54
2021/05/04 10:00:22;;;;;;;5.60;1.27;;;;;;;;;;5093558;28;20495;-50
2021/05/04 10:02:54;;;;;;;3.70;1.47;;;;;;;;;;5092851;28;20456;-55
2021/05/04 10:05:47;;;;;;;5.07;2.43;;;;;;;;;;5094087;28;20700;-54
2021/05/04 10:08:15;;;;;;;5.93;1.43;;;;;;;;;;5092972;28;20450;-55
2021/05/04 10:10:42;;;;;;;2.30;1.00;;;;;;;;;;5094168;28;20456;-59
2021/05/04 10:13:23;;;;;;;2.90;1.10;;;;;;;;;;5093368;28;20454;-57
2021/05/04 10:15:52;;;;;;;2.97;1.33;;;;;;;;;;5092106;28;20452;-57
2021/05/04 10:18:25;;;;;;;6.17;1.37;;;;;;;;;;5092747;28;20460;-61
2021/05/04 10:21:15;;;;;;;4.53;1.00;;;;;;;;;;5093827;28;20495;-61
2021/05/04 10:23:45;;;;;;;2.47;1.27;;;;;;;;;;5094121;28;20460;-55
2021/05/04 10:26:17;;;;;;;2.90;1.23;;;;;;;;;;5094018;28;20483;-60
2021/05/04 10:28:55;;;;;;;3.13;1.10;;;;;;;;;;5095600;28;20479;-54
2021/05/04 10:31:33;;;;;;;4.80;1.30;;;;;;;;;;5076864;28;20436;-57
2021/05/04 10:34:32;;;;;;;4.40;1.70;;;;;;;;;;5094587;28;20508;-54
2021/05/04 10:37:00;;;;;;;4.43;1.50;;;;;;;;;;5069571;28;20485;-58
2021/05/04 10:39:37;;;;;;;5.07;2.10;;;;;;;;;;5073398;28;20500;-56
2021/05/04 10:42:33;;;;;;;9.10;1.30;;;;;;;;;;5072102;28;20452;-54
2021/05/04 10:45:08;;;;;;;5.87;1.03;;;;;;;;;;5072819;28;20456;-61
2021/05/04 10:47:56;;;;;;;8.13;1.80;;;;;;;;;;5073446;28;20650;-53
2021/05/04 10:50:24;;;;;;;3.73;1.47;;;;;;;;;;5052681;28;20429;-53
2021/05/04 10:53:00;;;;;;;3.60;1.67;;;;;;;;;;5053544;28;20450;-53
2021/05/04 10:58:43;;;;;;;8.13;1.50;;;;;;;;;;5065098;28;20412;-49
2021/05/04 11:01:17;;;;;;;11.23;2.33;;;;;;;;;;5089963;28;20527;-57
2021/05/04 11:03:51;;;;;;;4.73;1.80;;;;;;;;;;5073469;28;20457;-56
2021/05/04 11:06:37;;;;;;;8.03;2.07;;;;;;;;;;5087190;28;20464;-56
2021/05/04 11:09:41;;;;;;;5.90;1.90;;;;;;;;;;5086419;28;20450;-55
2021/05/04 11:12:09;;;;;;;24.60;2.50;;;;;;;;;;5077692;28;20451;-57
2021/05/04 11:14:45;;;;;;;5.03;1.60;;;;;;;;;;5093193;28;20491;-49
2021/05/04 11:17:42;;;;;;;7.00;1.53;;;;;;;;;;5092814;28;20444;-59
2021/05/04 11:20:24;;;;;;;4.23;1.43;;;;;;;;;;5093309;28;20491;-56
2021/05/04 11:23:09;;;;;;;5.70;1.43;;;;;;;;;;5093098;28;20479;-54
2021/05/04 11:25:40;;;;;;;8.83;1.90;;;;;;;;;;5086312;28;20497;-57
2021/05/04 11:28:10;;;;;;;17.27;4.60;;;;;;;;;;5093314;28;20467;-61
2021/05/04 11:30:51;;;;;;;11.60;2.27;;;;;;;;;;5094411;28;20447;-54
2021/05/04 11:33:30;;;;;;;10.07;2.00;;;;;;;;;;5094259;28;20448;-59
2021/05/04 11:35:59;;;;;;;21.17;3.57;;;;;;;;;;5075084;28;20511;-56
2021/05/04 11:41:29;;;;;;;8.80;2.40;;;;;;;;;;5091479;28;20585;-57
2021/05/04 11:43:58;;;;;;;9.80;1.80;;;;;;;;;;5093677;28;20451;-57
2021/05/04 11:46:49;;;;;;;7.20;2.20;;;;;;;;;;5094473;28;20460;-62
2021/05/04 11:49:23;;;;;;;13.93;2.57;;;;;;;;;;5089363;28;20432;-59
2021/05/04 11:52:03;;;;;;;12.17;1.97;;;;;;;;;;5093703;28;20463;-54
2021/05/04 11:54:55;;;;;;;14.53;2.80;;;;;;;;;;5096470;28;20432;-60
2021/05/04 11:57:29;;;;;;;13.77;2.90;;;;;;;;;;5089998;28;20448;-59
2021/05/04 11:59:58;;;;;;;16.27;3.30;;;;;;;;;;5096605;28;20475;-56
2021/05/04 12:02:55;;;;;;;10.10;2.40;;;;;;;;;;5098500;28;20463;-59
2021/05/04 12:05:31;;;;;;;17.40;2.90;;;;;;;;;;5097618;28;20454;-56
2021/05/04 12:07:59;;;;;;;15.90;2.93;;;;;;;;;;5096183;28;20454;-58
2021/05/04 12:10:46;;;;;;;25.60;3.73;;;;;;;;;;5096944;28;20464;-55
2021/05/04 12:13:14;;;;;;;8.27;2.77;;;;;;;;;;5085778;28;20448;-60
2021/05/04 12:16:00;;;;;;;9.57;2.07;;;;;;;;;;5096232;28;20432;-58
2021/05/04 12:18:35;;;;;;;16.70;2.40;;;;;;;;;;5093909;28;20448;-53
2021/05/04 12:21:07;;;;;;;16.60;3.13;;;;;;;;;;5096316;28;20518;-53
2021/05/04 12:26:39;;;;;;;20.53;3.53;;;;;;;;;;5078578;28;20443;-60
2021/05/04 12:29:06;;;;;;;20.73;3.80;;;;;;;;;;5095936;28;20482;-54
2021/05/04 12:31:34;;;;;;;12.70;2.83;;;;;;;;;;5095428;28;20486;-60
2021/05/04 12:34:01;;;;;;;11.83;2.80;;;;;;;;;;5096465;28;20582;-56
2021/05/04 12:39:28;;;;;;;9.60;2.90;;;;;;;;;;5093041;28;20476;-56
2021/05/04 12:42:15;;;;;;;9.03;2.50;;;;;;;;;;5080231;28;20468;-56
2021/05/04 12:44:43;;;;;;;11.70;2.00;;;;;;;;;;5087083;28;20455;-51
2021/05/04 12:47:16;;;;;;;7.40;2.50;;;;;;;;;;5095873;28;20460;-56
2021/05/04 12:49:45;;;;;;;49.20;5.60;;;;;;;;;;5096658;28;20443;-59
2021/05/04 12:52:17;;;;;;;15.83;2.60;;;;;;;;;;5096997;28;20448;-53
2021/05/04 12:54:44;;;;;;;9.80;2.33;;;;;;;;;;5092482;28;20504;-60
2021/05/04 12:57:18;;;;;;;9.13;3.00;;;;;;;;;;5090036;28;20600;-47
2021/05/04 12:59:58;;;;;;;15.77;2.10;;;;;;;;;;5092850;28;20573;-57
2021/05/04 13:02:33;;;;;;;13.30;1.83;;;;;;;;;;5096009;28;20424;-54
2021/05/04 13:05:07;;;;;;;11.60;2.43;;;;;;;;;;5094834;28;20464;-51
2021/05/04 13:07:37;;;;;;;11.03;2.03;;;;;;;;;;5095655;28;20478;-57
2021/05/04 13:10:10;;;;;;;9.87;2.63;;;;;;;;;;5094269;28;20558;-55
2021/05/04 13:13:10;;;;;;;17.33;3.07;;;;;;;;;;5095305;28;20468;-60
2021/05/04 13:16:05;;;;;;;23.20;4.53;;;;;;;;;;5096185;28;20551;-60
2021/05/04 13:28:15;;;;;;;28.97;3.47;;;;;;;;;;5050338;28;20665;-57
2021/05/04 13:30:34;;;;;;;45.30;5.73;;;;;;;;;;5080237;28;20440;-60
2021/05/04 13:33:20;;;;;;;45.33;5.87;;;;;;;;;;5094940;28;20451;-60
2021/05/04 13:35:56;;;;;;;38.50;3.90;;;;;;;;;;5078810;28;20476;-56
2021/05/04 13:39:08;;;;;;;46.40;6.87;;;;;;;;;;5095900;28;20519;-56
2021/05/04 13:47:31;;;;;;;15.73;2.80;;;;;;;;;;5087775;28;20491;-56
2021/05/04 13:49:59;;;;;;;38.13;5.93;;;;;;;;;;5094167;28;20439;-57
2021/05/04 13:52:33;;;;;;;24.57;3.77;;;;;;;;;;5095530;28;20451;-60
2021/05/04 13:55:14;;;;;;;29.57;3.83;;;;;;;;;;5095929;28;20435;-55
2021/05/04 13:57:42;;;;;;;20.60;2.73;;;;;;;;;;5092213;28;20542;-59
2021/05/04 14:00:10;;;;;;;13.40;3.23;;;;;;;;;;5072472;28;20783;-58
2021/05/04 14:03:08;;;;;;;27.57;3.87;;;;;;;;;;5084622;28;20475;-58
2021/05/04 14:28:04;;;;;;;26.37;4.07;;;;;;;;;;5048240;28;20445;-61
2021/05/04 14:30:32;;;;;;;21.90;3.77;;;;;;;;;;5093576;28;20468;-60
2021/05/04 14:32:58;;;;;;;30.73;3.30;;;;;;;;;;5094107;28;20452;-55
2021/05/04 14:35:30;;;;;;;10.37;2.70;;;;;;;;;;5090611;28;20463;-53
2021/05/04 14:38:15;;;;;;;16.50;2.80;;;;;;;;;;5094386;28;20493;-58
2021/05/04 14:43:46;;;;;;;19.53;2.27;;;;;;;;;;5058676;28;20462;-57
2021/05/04 14:46:34;;;;;;;9.57;1.97;;;;;;;;;;5093910;28;20443;-59
2021/05/04 15:03:13;;;;;;;27.03;4.60;;;;;;;;;;5086439;28;20527;-55
2021/05/04 15:05:49;;;;;;;19.67;2.93;;;;;;;;;;5093426;28;20440;-56
2021/05/04 15:08:15;;;;;;;20.00;3.97;;;;;;;;;;5088595;28;20630;-55
2021/05/04 15:10:53;;;;;;;26.73;3.37;;;;;;;;;;5093184;28;20452;-53
2021/05/04 15:13:21;;;;;;;28.73;3.93;;;;;;;;;;5093095;28;20478;-54
2021/05/04 15:16:00;;;;;;;23.63;5.27;;;;;;;;;;5092741;28;20471;-53
2021/05/04 15:21:35;;;;;;;32.70;4.40;;;;;;;;;;5093680;28;20469;-61
2021/05/04 15:24:03;;;;;;;29.77;3.80;;;;;;;;;;5086962;28;20461;-60
2021/05/04 15:26:37;;;;;;;10.77;2.00;;;;;;;;;;5082525;28;20842;-54
2021/05/04 15:29:06;;;;;;;28.87;5.00;;;;;;;;;;5073543;28;20438;-57
2021/05/04 15:31:37;;;;;;;29.60;4.80;;;;;;;;;;5089401;28;20456;-54
2021/05/04 15:34:16;;;;;;;24.23;4.20;;;;;;;;;;5097452;28;20472;-58
2021/05/04 15:36:46;;;;;;;27.00;3.93;;;;;;;;;;5091078;28;20496;-54
2021/05/04 15:39:26;;;;;;;20.97;3.30;;;;;;;;;;5099333;28;20460;-52
2021/05/04 15:41:55;;;;;;;21.70;3.27;;;;;;;;;;5089978;28;20527;-56
2021/05/04 15:44:29;;;;;;;19.50;4.50;;;;;;;;;;5098541;28;20501;-59
2021/05/04 15:47:23;;;;;;;17.57;4.00;;;;;;;;;;5096930;28;20451;-56
2021/05/04 15:49:55;;;;;;;34.30;3.33;;;;;;;;;;5079039;28;20493;-55
2021/05/04 15:52:31;;;;;;;38.03;3.87;;;;;;;;;;5096210;28;20448;-57
2021/05/04 16:03:43;;;;;;;19.70;3.33;;;;;;;;;;5058150;28;20475;-58
2021/05/04 16:06:29;;;;;;;19.67;2.27;;;;;;;;;;5086458;28;20676;-58
2021/05/04 16:09:01;;;;;;;16.40;2.83;;;;;;;;;;5096407;28;20462;-57
2021/05/04 16:11:27;;;;;;;14.70;3.53;;;;;;;;;;5096205;28;20669;-57
2021/05/04 16:13:57;;;;;;;12.60;3.00;;;;;;;;;;5096399;28;20456;-58
2021/05/04 16:16:25;;;;;;;29.63;3.30;;;;;;;;;;5092488;28;20516;-54
2021/05/04 16:18:58;;;;;;;15.77;2.80;;;;;;;;;;5096254;28;20467;-61
2021/05/04 16:21:37;;;;;;;24.80;2.97;;;;;;;;;;5095983;28;20475;-54
2021/05/04 16:24:16;;;;;;;20.63;2.73;;;;;;;;;;5094984;28;20452;-60
2021/05/04 16:29:48;;;;;;;25.20;3.57;;;;;;;;;;5096290;28;20442;-59
2021/05/04 16:32:24;;;;;;;13.50;2.83;;;;;;;;;;5096354;28;20509;-54
2021/05/04 16:34:51;;;;;;;20.40;2.43;;;;;;;;;;5088523;28;20503;-55
2021/05/04 16:37:18;;;;;;;28.30;3.23;;;;;;;;;;5096000;28;20440;-54
2021/05/04 16:39:57;;;;;;;15.20;3.43;;;;;;;;;;5094831;28;20480;-56